Time;durP1;ratioP1;P1;durP2;ratioP2;P2;SDS_P1;SDS_P2;PMS_P1;PMS_P2;Temp;Humidity;BMP_temperature;BMP_pressure;BME280_temperature;BME280_humidity;BME280_pressure;Samples;Min_cycle;Max_cycle;Signal;HPM_P1;HPM_P2
2022/11/23 10:54:20;;;;;;;;;19.75;18.50;;;;;;;;5122479;27;1336138;-72
2022/11/23 10:56:47;;;;;;;;;22.25;20.25;;;;;;;;5148561;27;8858;-72
2022/11/23 10:59:27;;;;;;;;;22.50;21.25;;;;;;;;5148481;27;11395;-71
2022/11/23 11:02:00;;;;;;;;;25.00;24.25;;;;;;;;5129912;27;10426;-72
2022/11/23 11:04:28;;;;;;;;;22.33;21.00;;;;;;;;5148590;27;10123;-71
2022/11/23 11:07:15;;;;;;;;;25.00;23.33;;;;;;;;5129671;27;9443;-72
2022/11/23 11:09:41;;;;;;;;;22.75;21.50;;;;;;;;5148309;27;9045;-72
2022/11/23 11:12:14;;;;;;;;;27.33;25.00;;;;;;;;5148546;27;8774;-73
2022/11/23 11:14:53;;;;;;;;;24.00;23.00;;;;;;;;5148412;27;9690;-72
2022/11/23 11:17:25;;;;;;;;;28.00;25.75;;;;;;;;5148315;27;8819;-71
2022/11/23 11:19:50;;;;;;;;;24.50;22.75;;;;;;;;5148206;27;8786;-71
2022/11/23 11:22:24;;;;;;;;;22.67;21.67;;;;;;;;5148051;27;8807;-72
2022/11/23 11:24:49;;;;;;;;;23.00;22.75;;;;;;;;5129364;27;8801;-72
2022/11/23 11:27:17;;;;;;;;;24.67;22.00;;;;;;;;5147594;27;8831;-72
2022/11/23 11:29:42;;;;;;;;;24.25;22.75;;;;;;;;5148080;27;8896;-72
2022/11/23 11:32:13;;;;;;;;;25.33;22.67;;;;;;;;5148225;27;9089;-71
2022/11/23 11:34:38;;;;;;;;;26.00;23.33;;;;;;;;5147836;27;8952;-72
2022/11/23 11:37:22;;;;;;;;;23.00;23.00;;;;;;;;5147774;27;9476;-71
2022/11/23 11:39:56;;;;;;;;;27.25;25.00;;;;;;;;5147719;27;8790;-72
2022/11/23 11:42:41;;;;;;;;;24.50;21.25;;;;;;;;5147683;27;10023;-72
2022/11/23 11:45:14;;;;;;;;;23.50;23.50;;;;;;;;5147318;27;10399;-72
2022/11/23 11:47:43;;;;;;;;;25.50;24.25;;;;;;;;5148390;27;10790;-73
2022/11/23 11:50:30;;;;;;;;;27.25;23.50;;;;;;;;5129028;27;11688;-72
2022/11/23 11:52:59;;;;;;;;;26.50;23.75;;;;;;;;5147551;27;11427;-73
2022/11/23 11:55:33;;;;;;;;;20.75;20.75;;;;;;;;5147584;27;11371;-73
2022/11/23 11:58:03;;;;;;;;;27.25;24.50;;;;;;;;5148041;27;11404;-72
2022/11/23 12:00:31;;;;;;;;;22.75;19.50;;;;;;;;5147400;27;12107;-72
2022/11/23 12:02:57;;;;;;;;;31.25;22.00;;;;;;;;5147568;27;11575;-74
2022/11/23 12:05:41;;;;;;;;;20.00;15.25;;;;;;;;5134950;27;11442;-73
2022/11/23 12:08:06;;;;;;;;;21.00;19.75;;;;;;;;5133630;27;8766;-72
2022/11/23 12:10:45;;;;;;;;;22.00;20.25;;;;;;;;5133630;27;11430;-73
2022/11/23 12:13:12;;;;;;;;;28.75;21.75;;;;;;;;5133481;27;8793;-73
2022/11/23 12:15:41;;;;;;;;;20.25;19.00;;;;;;;;5133481;27;11439;-73
2022/11/23 12:18:21;;;;;;;;;21.50;20.00;;;;;;;;5133531;27;11463;-71
2022/11/23 12:20:56;;;;;;;;;22.50;18.00;;;;;;;;5132867;27;11479;-73
2022/11/23 12:23:39;;;;;;;;;23.50;22.00;;;;;;;;5133167;27;11447;-73
2022/11/23 12:26:11;;;;;;;;;21.25;18.00;;;;;;;;5133267;27;11507;-73
2022/11/23 12:28:51;;;;;;;;;20.50;19.25;;;;;;;;5133189;27;11419;-73
2022/11/23 12:31:31;;;;;;;;;26.25;25.00;;;;;;;;5133218;27;11445;-73
2022/11/23 12:33:59;;;;;;;;;22.00;22.00;;;;;;;;5133025;27;11449;-73
2022/11/23 12:36:35;;;;;;;;;24.50;20.50;;;;;;;;5132495;27;11515;-71
2022/11/23 12:39:00;;;;;;;;;17.00;17.00;;;;;;;;5132926;27;11445;-73
2022/11/23 12:41:37;;;;;;;;;22.00;21.50;;;;;;;;5132986;27;11457;-73
2022/11/23 12:44:21;;;;;;;;;22.00;20.75;;;;;;;;5133045;27;8782;-73
2022/11/23 12:46:55;;;;;;;;;21.75;17.50;;;;;;;;5132882;27;11545;-72
2022/11/23 12:49:20;;;;;;;;;23.75;20.50;;;;;;;;5112273;22;11516;-73
2022/11/23 12:52:04;;;;;;;;;24.00;20.75;;;;;;;;5072383;28;11440;-73
2022/11/23 12:54:53;;;;;;;;;29.50;23.75;;;;;;;;5053851;28;8798;-73
2022/11/23 12:57:29;;;;;;;;;23.75;20.25;;;;;;;;5072351;28;11416;-72
2022/11/23 13:00:03;;;;;;;;;25.00;23.75;;;;;;;;5054259;28;10968;-74
2022/11/23 13:02:29;;;;;;;;;22.75;20.00;;;;;;;;5072102;28;11565;-73
2022/11/23 13:05:07;;;;;;;;;23.50;20.00;;;;;;;;5071805;28;11421;-74
2022/11/23 13:07:42;;;;;;;;;22.25;19.25;;;;;;;;5070762;28;8793;-74
2022/11/23 13:10:19;;;;;;;;;22.75;20.75;;;;;;;;5071990;28;11414;-73
2022/11/23 13:12:56;;;;;;;;;24.00;21.50;;;;;;;;5071632;28;11450;-73
2022/11/23 13:15:21;;;;;;;;;19.00;17.00;;;;;;;;5071098;28;11408;-72
2022/11/23 13:17:52;;;;;;;;;19.00;17.75;;;;;;;;5071295;28;12151;-73
2022/11/23 13:20:27;;;;;;;;;17.25;15.50;;;;;;;;5071908;28;8843;-73
2022/11/23 13:22:54;;;;;;;;;17.50;15.00;;;;;;;;5053584;28;11404;-73
2022/11/23 13:25:26;;;;;;;;;18.25;15.50;;;;;;;;5071505;28;11425;-73
2022/11/23 13:27:52;;;;;;;;;16.25;16.25;;;;;;;;5077661;28;11418;-81
2022/11/23 13:30:23;;;;;;;;;19.50;16.00;;;;;;;;5073736;28;11526;-80
2022/11/23 13:32:57;;;;;;;;;16.75;16.50;;;;;;;;5070609;28;8844;-85
2022/11/23 13:35:22;;;;;;;;;16.75;16.00;;;;;;;;5051770;28;11532;-82
2022/11/23 13:37:53;;;;;;;;;14.25;14.25;;;;;;;;5051340;28;11498;-82
2022/11/23 13:40:22;;;;;;;;;25.50;25.25;;;;;;;;5051529;28;8780;-80
2022/11/23 13:42:49;;;;;;;;;21.25;16.75;;;;;;;;5051340;28;11546;-78
2022/11/23 13:45:17;;;;;;;;;21.75;20.25;;;;;;;;5056610;28;12151;-77
2022/11/23 13:48:01;;;;;;;;;21.50;20.00;;;;;;;;5061698;28;11426;-77
2022/11/23 13:50:27;;;;;;;;;20.25;19.50;;;;;;;;5047739;28;12173;-77
2022/11/23 13:52:53;;;;;;;;;22.00;16.00;;;;;;;;5039798;28;11492;-78
2022/11/23 13:55:20;;;;;;;;;23.25;21.50;;;;;;;;5071060;28;8786;-78
2022/11/23 13:58:06;;;;;;;;;17.50;17.50;;;;;;;;5071164;28;8770;-76
2022/11/23 14:00:50;;;;;;;;;21.75;20.25;;;;;;;;5070873;28;11524;-76
2022/11/23 14:03:34;;;;;;;;;17.50;15.00;;;;;;;;5064806;28;11493;-76
2022/11/23 14:06:00;;;;;;;;;19.50;17.75;;;;;;;;5056068;28;11557;-77
2022/11/23 14:08:26;;;;;;;;;14.00;9.50;;;;;;;;5044798;28;12349;-77
2022/11/23 14:10:52;;;;;;;;;24.00;20.75;;;;;;;;5059193;28;8808;-75
2022/11/23 14:13:20;;;;;;;;;21.75;20.00;;;;;;;;5056118;28;8897;-78
2022/11/23 14:15:52;;;;;;;;;19.00;16.25;;;;;;;;5060852;28;11580;-77
2022/11/23 14:18:36;;;;;;;;;23.75;20.75;;;;;;;;5060893;28;12289;-75
2022/11/23 14:21:17;;;;;;;;;20.00;17.00;;;;;;;;5060771;28;11526;-78
2022/11/23 14:23:57;;;;;;;;;17.75;16.00;;;;;;;;5060724;28;11411;-77
2022/11/23 14:26:36;;;;;;;;;18.25;16.00;;;;;;;;5060759;28;11506;-78
2022/11/23 14:29:05;;;;;;;;;23.75;19.50;;;;;;;;5060636;28;11404;-77
2022/11/23 14:31:33;;;;;;;;;19.75;17.75;;;;;;;;5060572;28;11426;-78
2022/11/23 14:34:17;;;;;;;;;19.00;16.25;;;;;;;;5058378;28;11601;-76
2022/11/23 14:36:52;;;;;;;;;21.50;16.00;;;;;;;;5060548;28;12121;-76
2022/11/23 14:39:36;;;;;;;;;24.25;21.50;;;;;;;;5062624;28;12146;-77
2022/11/23 14:42:02;;;;;;;;;20.25;17.50;;;;;;;;5062890;28;11407;-77
2022/11/23 14:44:28;;;;;;;;;22.50;19.75;;;;;;;;5070329;28;11447;-79
2022/11/23 14:47:07;;;;;;;;;21.25;19.75;;;;;;;;5070214;28;11425;-78
2022/11/23 14:49:33;;;;;;;;;24.25;21.00;;;;;;;;5070582;28;11434;-78
2022/11/23 14:51:59;;;;;;;;;17.00;17.00;;;;;;;;5069898;28;11480;-78
2022/11/23 14:54:24;;;;;;;;;20.00;20.00;;;;;;;;5066951;28;8862;-78
2022/11/23 14:56:51;;;;;;;;;22.00;20.25;;;;;;;;5064307;28;11519;-78
2022/11/23 14:59:16;;;;;;;;;19.00;17.00;;;;;;;;5058278;28;8816;-78
2022/11/23 17:40:16;;;;;;;;;34.00;30.33;;;;;;;;4922649;28;13777;-72
2022/11/23 17:42:42;;;;;;;;;44.00;38.33;;;;;;;;4947613;28;11652;-70
2022/11/23 17:45:08;;;;;;;;;41.33;38.00;;;;;;;;4964804;28;8846;-70
2022/11/23 17:47:33;;;;;;;;;52.33;39.00;;;;;;;;4964485;28;8838;-71
2022/11/23 17:49:58;;;;;;;;;25.67;24.00;;;;;;;;4980282;28;8856;-72
2022/11/23 17:52:24;;;;;;;;;47.33;42.00;;;;;;;;4966264;28;8924;-73
2022/11/23 17:54:50;;;;;;;;;40.00;38.67;;;;;;;;4964246;28;9651;-73
2022/11/23 17:57:16;;;;;;;;;28.00;26.00;;;;;;;;4967629;28;8845;-73
2022/11/23 17:59:42;;;;;;;;;39.00;39.00;;;;;;;;4967513;28;8904;-75
2022/11/23 18:02:08;;;;;;;;;37.00;32.25;;;;;;;;4967657;28;11603;-75
2022/11/23 18:04:33;;;;;;;;;53.33;42.00;;;;;;;;4967740;28;8822;-75
2022/11/23 18:06:59;;;;;;;;;44.00;40.75;;;;;;;;4967175;28;8822;-74
2022/11/23 18:09:24;;;;;;;;;40.67;36.00;;;;;;;;4966473;28;8924;-74
2022/11/23 18:11:49;;;;;;;;;41.25;40.00;;;;;;;;4965915;28;8941;-73
2022/11/23 18:14:16;;;;;;;;;48.33;42.67;;;;;;;;4966067;28;8993;-74
2022/11/23 18:16:42;;;;;;;;;46.50;41.00;;;;;;;;4966365;28;8830;-72
2022/11/23 18:19:07;;;;;;;;;52.00;43.67;;;;;;;;4965714;28;11657;-73
2022/11/23 18:21:32;;;;;;;;;45.00;40.25;;;;;;;;4965914;28;8810;-73
2022/11/23 18:23:58;;;;;;;;;46.00;38.33;;;;;;;;4965663;28;8830;-73
2022/11/23 18:26:29;;;;;;;;;43.00;35.75;;;;;;;;4965727;28;8849;-72
2022/11/23 18:28:54;;;;;;;;;41.33;39.33;;;;;;;;4962493;28;8899;-72
2022/11/23 18:31:20;;;;;;;;;41.25;31.75;;;;;;;;4963004;28;12357;-73
2022/11/23 18:33:45;;;;;;;;;44.00;37.00;;;;;;;;4963312;28;9684;-75
2022/11/23 18:36:11;;;;;;;;;39.00;36.75;;;;;;;;4965347;28;8876;-73
2022/11/23 18:38:47;;;;;;;;;43.50;38.50;;;;;;;;4972356;28;8843;-73
2022/11/23 18:41:14;;;;;;;;;46.00;41.00;;;;;;;;4981797;28;11598;-72
2022/11/23 18:43:40;;;;;;;;;42.33;39.67;;;;;;;;4983684;28;11611;-72
2022/11/23 18:46:05;;;;;;;;;35.33;32.33;;;;;;;;4984728;28;11597;-74
2022/11/23 18:48:31;;;;;;;;;45.33;40.67;;;;;;;;4982844;28;8982;-73
2022/11/23 18:51:00;;;;;;;;;45.67;40.00;;;;;;;;4974270;28;8812;-73
2022/11/23 18:53:25;;;;;;;;;41.67;39.33;;;;;;;;4971637;28;8823;-71
2022/11/23 18:55:51;;;;;;;;;53.67;41.67;;;;;;;;4971648;28;11772;-71
2022/11/23 18:58:16;;;;;;;;;41.33;38.33;;;;;;;;4969957;28;9648;-70
2022/11/23 19:00:42;;;;;;;;;36.33;36.33;;;;;;;;4971737;28;8939;-71
2022/11/23 19:03:08;;;;;;;;;46.67;39.00;;;;;;;;4971965;28;8879;-71
2022/11/23 19:05:34;;;;;;;;;36.00;33.33;;;;;;;;4973175;28;8982;-71
2022/11/23 19:08:03;;;;;;;;;37.00;31.75;;;;;;;;4968911;28;11744;-77
2022/11/23 19:10:29;;;;;;;;;38.67;38.67;;;;;;;;4972805;28;11597;-70
2022/11/23 19:12:55;;;;;;;;;35.33;32.33;;;;;;;;4972941;28;11729;-72
2022/11/23 19:15:20;;;;;;;;;39.00;38.67;;;;;;;;4972752;28;11563;-71
2022/11/23 19:17:46;;;;;;;;;30.50;28.75;;;;;;;;4970895;28;8893;-73
2022/11/23 19:20:12;;;;;;;;;30.75;25.00;;;;;;;;4971084;28;8977;-72
2022/11/23 19:22:37;;;;;;;;;33.25;28.75;;;;;;;;4972054;28;11683;-71
2022/11/23 19:25:02;;;;;;;;;31.75;29.75;;;;;;;;4972512;28;8804;-73
2022/11/23 19:27:28;;;;;;;;;33.25;30.00;;;;;;;;4971100;28;8835;-71
2022/11/23 19:29:53;;;;;;;;;27.75;23.00;;;;;;;;4971555;28;9602;-74
2022/11/23 19:32:19;;;;;;;;;35.25;26.50;;;;;;;;4972087;28;8970;-72
2022/11/23 19:34:44;;;;;;;;;24.00;22.25;;;;;;;;4972442;28;8928;-71
2022/11/23 19:37:09;;;;;;;;;32.25;27.75;;;;;;;;4970604;28;8804;-72
2022/11/23 19:39:35;;;;;;;;;35.50;27.50;;;;;;;;4970621;28;8855;-72
2022/11/23 19:42:00;;;;;;;;;27.50;22.00;;;;;;;;4970702;28;8827;-71
2022/11/23 19:44:25;;;;;;;;;25.50;24.00;;;;;;;;4962509;28;9568;-73
2022/11/23 19:46:51;;;;;;;;;35.50;31.25;;;;;;;;4952365;28;9592;-73
2022/11/23 19:49:16;;;;;;;;;36.33;32.67;;;;;;;;4952620;28;8842;-73
2022/11/23 19:51:41;;;;;;;;;28.00;24.25;;;;;;;;4964236;28;8842;-73
2022/11/23 19:54:08;;;;;;;;;37.00;29.00;;;;;;;;4971987;28;8819;-72
2022/11/23 19:56:35;;;;;;;;;30.50;29.50;;;;;;;;4969630;28;8834;-72
2022/11/23 19:59:01;;;;;;;;;39.25;35.25;;;;;;;;4970699;28;11623;-73
2022/11/23 20:01:27;;;;;;;;;39.50;32.50;;;;;;;;4970633;28;11587;-70
2022/11/23 20:03:53;;;;;;;;;39.33;37.00;;;;;;;;4986655;28;8839;-72
2022/11/23 20:06:26;;;;;;;;;46.33;42.00;;;;;;;;4971209;28;9554;-71
2022/11/23 20:08:59;;;;;;;;;38.00;31.33;;;;;;;;4970421;28;8856;-72
2022/11/23 20:11:26;;;;;;;;;52.00;42.33;;;;;;;;4968700;28;8860;-73
2022/11/23 20:13:52;;;;;;;;;52.33;41.33;;;;;;;;4968746;28;8827;-73
2022/11/23 20:16:18;;;;;;;;;57.67;48.67;;;;;;;;4969508;28;8839;-70
2022/11/23 20:18:44;;;;;;;;;53.67;45.33;;;;;;;;4970345;28;8917;-72
2022/11/23 20:21:13;;;;;;;;;53.33;42.33;;;;;;;;4970474;28;8799;-78
2022/11/23 20:23:39;;;;;;;;;49.33;40.33;;;;;;;;4984448;28;8900;-73
2022/11/23 20:26:04;;;;;;;;;44.33;40.00;;;;;;;;4968653;28;8819;-75
2022/11/23 20:28:30;;;;;;;;;46.00;42.00;;;;;;;;4968560;28;8873;-74
2022/11/23 20:30:55;;;;;;;;;44.67;39.33;;;;;;;;4970168;28;8803;-74
2022/11/23 20:33:20;;;;;;;;;48.00;37.00;;;;;;;;4968963;28;9514;-72
2022/11/23 20:35:46;;;;;;;;;42.67;40.33;;;;;;;;4970055;28;8845;-74
2022/11/23 20:38:12;;;;;;;;;32.67;29.00;;;;;;;;4970069;28;8811;-74
2022/11/23 20:40:37;;;;;;;;;45.67;41.00;;;;;;;;4968656;28;11639;-73
2022/11/23 20:43:02;;;;;;;;;41.33;34.67;;;;;;;;4969162;28;8799;-72
2022/11/23 20:45:28;;;;;;;;;40.33;39.67;;;;;;;;4984435;28;8909;-70
2022/11/23 20:47:53;;;;;;;;;36.33;29.67;;;;;;;;4969897;28;8828;-72
2022/11/23 20:50:26;;;;;;;;;37.33;36.00;;;;;;;;4980958;28;8863;-72
2022/11/23 20:52:52;;;;;;;;;39.33;36.33;;;;;;;;4967472;28;8854;-72
2022/11/23 20:55:22;;;;;;;;;33.33;30.67;;;;;;;;4967241;28;8823;-71
2022/11/23 20:57:47;;;;;;;;;50.33;41.33;;;;;;;;4967793;28;11675;-71
2022/11/23 21:00:13;;;;;;;;;46.67;41.67;;;;;;;;4968101;28;11568;-69
2022/11/23 21:02:38;;;;;;;;;38.00;34.67;;;;;;;;4968460;28;8926;-73
2022/11/23 21:05:04;;;;;;;;;39.00;32.67;;;;;;;;4966800;28;8852;-73
2022/11/23 21:07:29;;;;;;;;;34.00;31.00;;;;;;;;4968016;28;8836;-72
2022/11/23 21:09:55;;;;;;;;;40.67;33.33;;;;;;;;4968055;28;8974;-75
2022/11/23 21:15:04;;;;;;;;;44.33;41.00;;;;;;;;4968116;28;8819;-74
2022/11/23 21:17:29;;;;;;;;;47.00;37.67;;;;;;;;4968703;28;8842;-74
2022/11/23 21:19:55;;;;;;;;;46.33;40.67;;;;;;;;4968032;28;8831;-75
2022/11/23 21:22:20;;;;;;;;;54.00;46.33;;;;;;;;4967960;28;8837;-76
2022/11/23 21:24:46;;;;;;;;;46.00;38.00;;;;;;;;4968221;28;8808;-73
2022/11/23 21:27:12;;;;;;;;;46.67;38.00;;;;;;;;4967210;28;8812;-74
2022/11/23 21:29:37;;;;;;;;;43.67;37.00;;;;;;;;4967570;28;8997;-75
2022/11/23 21:32:02;;;;;;;;;36.00;32.33;;;;;;;;4967967;28;8897;-75
2022/11/23 21:34:28;;;;;;;;;39.67;37.33;;;;;;;;4968118;28;8904;-76
2022/11/23 21:36:54;;;;;;;;;38.67;34.33;;;;;;;;4968017;28;8812;-75
2022/11/23 21:39:19;;;;;;;;;36.67;33.33;;;;;;;;4967052;28;8807;-76
2022/11/23 21:41:47;;;;;;;;;32.00;25.33;;;;;;;;4974247;28;8893;-76
2022/11/23 21:44:12;;;;;;;;;44.00;38.67;;;;;;;;4968075;28;8894;-76
2022/11/23 21:46:39;;;;;;;;;41.67;38.00;;;;;;;;4968072;28;8820;-74
2022/11/23 21:49:07;;;;;;;;;47.67;39.67;;;;;;;;4967709;28;8871;-75
2022/11/23 21:51:33;;;;;;;;;35.67;28.67;;;;;;;;4966661;28;8834;-76
2022/11/23 21:53:59;;;;;;;;;46.67;41.67;;;;;;;;4968995;28;8795;-74
2022/11/23 21:56:25;;;;;;;;;42.33;35.00;;;;;;;;4968679;28;8832;-73
2022/11/23 21:58:51;;;;;;;;;39.33;35.33;;;;;;;;4969451;28;8820;-72
2022/11/23 22:01:21;;;;;;;;;39.00;32.33;;;;;;;;4967730;28;8826;-72
2022/11/23 22:03:47;;;;;;;;;45.67;39.00;;;;;;;;4967702;28;8831;-77
2022/11/23 22:06:13;;;;;;;;;43.33;42.00;;;;;;;;4968450;28;8893;-73
2022/11/23 22:08:43;;;;;;;;;46.33;41.67;;;;;;;;4968540;28;8964;-73
2022/11/23 22:11:10;;;;;;;;;45.67;40.33;;;;;;;;4969586;28;8826;-77
2022/11/23 22:13:35;;;;;;;;;50.00;42.67;;;;;;;;4969845;28;8850;-76
2022/11/23 22:16:09;;;;;;;;;52.67;45.00;;;;;;;;4970106;28;8792;-73
2022/11/23 22:18:34;;;;;;;;;59.67;46.00;;;;;;;;4970311;28;9001;-73
2022/11/23 22:21:03;;;;;;;;;48.67;42.67;;;;;;;;4970062;28;8918;-73
2022/11/23 22:23:28;;;;;;;;;51.00;45.00;;;;;;;;4984879;28;8838;-73
2022/11/23 22:25:54;;;;;;;;;51.33;45.33;;;;;;;;4972751;28;8827;-73
2022/11/23 22:28:19;;;;;;;;;49.33;42.33;;;;;;;;4988758;28;8858;-72
2022/11/23 22:30:50;;;;;;;;;56.00;45.67;;;;;;;;4973923;28;8815;-73
2022/11/23 22:33:16;;;;;;;;;54.33;47.33;;;;;;;;4973829;28;8921;-74
2022/11/23 22:35:41;;;;;;;;;48.00;41.67;;;;;;;;4973785;28;8808;-73
2022/11/23 22:38:06;;;;;;;;;52.33;42.67;;;;;;;;4973561;28;8795;-72
2022/11/23 22:40:33;;;;;;;;;53.67;44.33;;;;;;;;4973842;28;8787;-74
2022/11/23 22:42:58;;;;;;;;;51.00;46.00;;;;;;;;4973896;28;8847;-72
2022/11/23 22:45:23;;;;;;;;;56.67;45.67;;;;;;;;4973968;28;8788;-74
2022/11/23 22:47:48;;;;;;;;;51.67;47.00;;;;;;;;4973668;28;8787;-73
2022/11/23 22:50:14;;;;;;;;;50.67;45.67;;;;;;;;4974140;28;9054;-73
2022/11/23 22:52:39;;;;;;;;;41.67;40.33;;;;;;;;4973258;28;8808;-72
2022/11/23 22:55:05;;;;;;;;;52.33;45.00;;;;;;;;4973498;28;8812;-73
2022/11/23 22:57:30;;;;;;;;;49.33;45.00;;;;;;;;4973133;28;8988;-73
2022/11/23 22:59:55;;;;;;;;;48.00;43.33;;;;;;;;4973258;28;8807;-73
2022/11/23 23:02:21;;;;;;;;;44.67;40.33;;;;;;;;4973296;28;8808;-72
2022/11/23 23:04:46;;;;;;;;;47.67;43.00;;;;;;;;4973345;28;8818;-72
2022/11/23 23:07:12;;;;;;;;;55.33;47.00;;;;;;;;4973089;28;8800;-73
2022/11/23 23:09:37;;;;;;;;;54.67;43.67;;;;;;;;4973089;28;8807;-74
2022/11/23 23:12:02;;;;;;;;;59.00;47.67;;;;;;;;4972927;28;8909;-74
2022/11/23 23:14:28;;;;;;;;;52.33;46.00;;;;;;;;4988049;28;8812;-73
2022/11/23 23:16:53;;;;;;;;;57.67;46.67;;;;;;;;4973074;28;8930;-72
2022/11/23 23:19:18;;;;;;;;;53.00;46.33;;;;;;;;4972899;28;8808;-74
2022/11/23 23:21:43;;;;;;;;;57.00;46.67;;;;;;;;4972859;28;8804;-73
2022/11/23 23:24:08;;;;;;;;;53.33;47.67;;;;;;;;4972737;28;8945;-74
2022/11/23 23:26:34;;;;;;;;;56.67;49.33;;;;;;;;4972933;28;8823;-74
2022/11/23 23:28:59;;;;;;;;;63.33;50.33;;;;;;;;4972832;28;8857;-72
2022/11/23 23:31:25;;;;;;;;;53.67;49.67;;;;;;;;4972792;28;8800;-74
2022/11/23 23:33:52;;;;;;;;;66.00;51.33;;;;;;;;4972449;28;8830;-72
2022/11/23 23:36:18;;;;;;;;;57.00;47.67;;;;;;;;4972270;28;8834;-73
2022/11/23 23:38:44;;;;;;;;;63.00;49.00;;;;;;;;4972301;28;8823;-73
2022/11/23 23:41:09;;;;;;;;;51.00;46.33;;;;;;;;4972529;28;8827;-74
2022/11/23 23:43:35;;;;;;;;;54.00;46.67;;;;;;;;4972366;28;8825;-74
2022/11/23 23:46:01;;;;;;;;;59.33;49.33;;;;;;;;4972513;28;8819;-74
2022/11/23 23:51:05;;;;;;;;;63.67;51.00;;;;;;;;4970292;28;9580;-80
2022/11/23 23:53:33;;;;;;;;;14.00;8.00;;;;;;;;4971780;28;8800;-80
2022/11/23 23:56:00;;;;;;;;;59.00;47.67;;;;;;;;4971709;28;8823;-74
2022/11/23 23:58:25;;;;;;;;;58.67;48.67;;;;;;;;4971401;28;8800;-79
